Ice Star — OUJK2 — position and weather

sailwx.info

Track history (hours):
 
Tides and Currents Weather Stations Pressure Air Temp Water Temp Dewpoint Dewpoint Depression Visibility Wind Speed Wind Dir Waves Ship Positions

Ice Star

Last reported at 2016-Dec-09 11:33 UTC. Time now 2016-Dec-09 11:45 UTC.
Position N 23°48' E 118°17'.

Length 367 m; draft 14 m.

Type: Ship (hazmat cat A). MMSI: 220596000.

Date/timePositionNaut miles runAvg speedWind from/ knotsBaromVisibWave heightAir tempDewpointWater temp
2016-Dec-09 11:33N 23°48' E 118°17'3022.0
2016-Dec-09 10:11N 24°08' E 118°41'1521.7
2016-Dec-09 09:29N 24°18' E 118°54'2021.9
2016-Dec-09 08:33N 24°32' E 119°10'2222.3
2016-Dec-09 07:34N 24°47' E 119°29'31420.8
2016-Dec-08 16:28N 29°14' E 122°35'1921.1
2016-Dec-08 15:33N 29°33' E 122°34'1919.4
2016-Dec-08 14:34N 29°46' E 122°18'1212.1
2016-Dec-08 13:34N 29°55' E 122°09'6 5.4
2016-Dec-08 12:28N 29°54' E 122°02'0 0.0
2016-Dec-08 11:13N 29°54' E 122°02'0 0.0
2016-Dec-08 10:31N 29°54' E 122°02'0 0.0
2016-Dec-08 09:25N 29°54' E 122°02'0 0.0
2016-Dec-08 08:31N 29°54' E 122°02'0 0.0
2016-Dec-08 07:31N 29°54' E 122°02'0 0.0
2016-Dec-08 06:19N 29°54' E 122°02'0 0.0
2016-Dec-08 05:28N 29°54' E 122°02'0 0.0
2016-Dec-08 04:25N 29°54' E 122°02'0 0.0
2016-Dec-08 03:31N 29°54' E 122°02'0 0.0
2016-Dec-08 02:31N 29°54' E 122°02'0 0.0
2016-Dec-08 01:28N 29°54' E 122°02'0 0.0
2016-Dec-08 00:31N 29°54' E 122°02'0 0.0
2016-Dec-07 23:16N 29°54' E 122°02'0 0.0
2016-Dec-07 22:28N 29°54' E 122°02'0 0.0
2016-Dec-07 21:31N 29°54' E 122°02'0 0.0
2016-Dec-07 20:25N 29°54' E 122°02'0 0.0
2016-Dec-07 19:31N 29°54' E 122°02'0 0.0
2016-Dec-07 18:31N 29°54' E 122°02'0 0.0
2016-Dec-07 17:28N 29°54' E 122°02'0 0.0
2016-Dec-07 16:31N 29°54' E 122°02'0 0.0
2016-Dec-07 15:31N 29°54' E 122°02'0 0.0
2016-Dec-07 14:31N 29°54' E 122°02'0 0.0
2016-Dec-07 13:31N 29°54' E 122°02'14 6.0
2016-Dec-07 11:12N 29°47' E 122°16'5 7.7
2016-Dec-07 10:33N 29°45' E 122°21'1515.5
2016-Dec-07 09:33N 29°45' E 122°39'3817.5
2016-Dec-07 07:24N 30°20' E 122°58'1819.3
2016-Dec-07 06:27N 30°30' E 122°40'13 0.4
2016-Dec-05 22:33N 30°30' E 122°55'  
Track history (hours):
 
Tides and Currents Weather Stations Pressure Air Temp Water Temp Dewpoint Dewpoint Depression Visibility Wind Speed Wind Dir Waves Ship Positions

Ice Star

Last reported at 2016-Dec-09 11:33 UTC. Time now 2016-Dec-09 11:45 UTC.
Position N 23°48' E 118°17'.

Length 367 m; draft 14 m.

Type: Ship (hazmat cat A). MMSI: 220596000.

Date/timePositionNaut miles runAvg speedWind from/ knotsBaromVisibWave heightAir tempDewpointWater temp
2016-Dec-09 11:33N 23°48' E 118°17'3022.0
2016-Dec-09 10:11N 24°08' E 118°41'1521.7
2016-Dec-09 09:29N 24°18' E 118°54'2021.9
2016-Dec-09 08:33N 24°32' E 119°10'2222.3
2016-Dec-09 07:34N 24°47' E 119°29'31420.8
2016-Dec-08 16:28N 29°14' E 122°35'1921.1
2016-Dec-08 15:33N 29°33' E 122°34'1919.4
2016-Dec-08 14:34N 29°46' E 122°18'1212.1
2016-Dec-08 13:34N 29°55' E 122°09'6 5.4
2016-Dec-08 12:28N 29°54' E 122°02'0 0.0
2016-Dec-08 11:13N 29°54' E 122°02'0 0.0
2016-Dec-08 10:31N 29°54' E 122°02'0 0.0
2016-Dec-08 09:25N 29°54' E 122°02'0 0.0
2016-Dec-08 08:31N 29°54' E 122°02'0 0.0
2016-Dec-08 07:31N 29°54' E 122°02'0 0.0
2016-Dec-08 06:19N 29°54' E 122°02'0 0.0
2016-Dec-08 05:28N 29°54' E 122°02'0 0.0
2016-Dec-08 04:25N 29°54' E 122°02'0 0.0
2016-Dec-08 03:31N 29°54' E 122°02'0 0.0
2016-Dec-08 02:31N 29°54' E 122°02'0 0.0
2016-Dec-08 01:28N 29°54' E 122°02'0 0.0
2016-Dec-08 00:31N 29°54' E 122°02'0 0.0
2016-Dec-07 23:16N 29°54' E 122°02'0 0.0
2016-Dec-07 22:28N 29°54' E 122°02'0 0.0
2016-Dec-07 21:31N 29°54' E 122°02'0 0.0
2016-Dec-07 20:25N 29°54' E 122°02'0 0.0
2016-Dec-07 19:31N 29°54' E 122°02'0 0.0
2016-Dec-07 18:31N 29°54' E 122°02'0 0.0
2016-Dec-07 17:28N 29°54' E 122°02'0 0.0
2016-Dec-07 16:31N 29°54' E 122°02'0 0.0
2016-Dec-07 15:31N 29°54' E 122°02'0 0.0
2016-Dec-07 14:31N 29°54' E 122°02'0 0.0
2016-Dec-07 13:31N 29°54' E 122°02'14 6.0
2016-Dec-07 11:12N 29°47' E 122°16'5 7.7
2016-Dec-07 10:33N 29°45' E 122°21'1515.5
2016-Dec-07 09:33N 29°45' E 122°39'3817.5
2016-Dec-07 07:24N 30°20' E 122°58'1819.3
2016-Dec-07 06:27N 30°30' E 122°40'13 0.4
2016-Dec-05 22:33N 30°30' E 122°55'  

Dump ship's entire track history